Time;durP1;ratioP1;P1;durP2;ratioP2;P2;SDS_P1;SDS_P2;PMS_P1;PMS_P2;Temp;Humidity;BMP_temperature;BMP_pressure;BME280_temperature;BME280_humidity;BME280_pressure;Samples;Min_cycle;Max_cycle;Signal;HPM_P1;HPM_P2
2023/03/21 04:46:55;;;;;;;7.25;5.37;;;;;;;8.83;100.00;100358.59;5328916;28;20522;-88
2023/03/21 04:49:58;;;;;;;8.98;5.72;;;;;;;8.70;100.00;100357.41;5272404;33;33683;-86
2023/03/21 04:53:01;;;;;;;8.27;5.47;;;;;;;8.61;100.00;100352.03;5265154;33;34402;-86
2023/03/21 04:56:05;;;;;;;9.85;5.85;;;;;;;8.57;100.00;100355.19;5266637;33;33970;-85
2023/03/21 04:59:12;;;;;;;7.45;6.22;;;;;;;8.50;100.00;100364.94;5275799;33;33134;-90
2023/03/21 05:02:15;;;;;;;8.45;5.93;;;;;;;8.44;100.00;100363.75;5275773;33;33568;-90
2023/03/21 05:05:18;;;;;;;9.77;6.32;;;;;;;8.41;100.00;100366.75;5264695;33;34612;-86
2023/03/21 05:08:21;;;;;;;8.40;6.20;;;;;;;8.40;100.00;100362.41;5266707;33;32820;-86
2023/03/21 05:11:24;;;;;;;7.35;5.45;;;;;;;8.40;100.00;100370.44;5266430;33;33623;-86
2023/03/21 05:14:27;;;;;;;9.50;5.82;;;;;;;8.50;100.00;100363.06;5278792;33;33493;-86
2023/03/21 05:17:30;;;;;;;8.30;5.68;;;;;;;8.57;100.00;100360.56;5278680;33;33673;-86
2023/03/21 05:20:33;;;;;;;11.02;6.40;;;;;;;8.69;100.00;100364.62;5255001;33;34176;-86
2023/03/21 05:23:38;;;;;;;10.25;5.57;;;;;;;8.82;100.00;100369.50;5278029;33;33500;-86
2023/03/21 05:26:43;;;;;;;9.00;5.15;;;;;;;9.03;100.00;100364.47;5278437;33;33110;-86
2023/03/21 05:29:46;;;;;;;8.80;5.93;;;;;;;9.38;100.00;100372.34;5280223;33;33427;-86
2023/03/21 05:32:50;;;;;;;7.15;5.32;;;;;;;9.45;100.00;100373.34;5262108;33;33453;-86
2023/03/21 05:35:54;;;;;;;9.95;5.55;;;;;;;9.59;100.00;100374.47;5260607;33;34093;-86
2023/03/21 05:38:58;;;;;;;7.75;5.70;;;;;;;9.76;100.00;100378.81;5290200;33;33448;-85
2023/03/21 05:42:01;;;;;;;9.48;5.35;;;;;;;9.93;98.09;100380.44;5278672;33;33291;-86
2023/03/21 05:45:05;;;;;;;6.87;5.28;;;;;;;10.15;96.17;100378.84;5278692;33;33821;-86
2023/03/21 05:48:09;;;;;;;7.55;5.45;;;;;;;10.38;94.13;100378.94;5276214;33;34427;-86
2023/03/21 05:51:17;;;;;;;7.47;5.62;;;;;;;10.53;92.79;100384.41;5257349;33;32311;-86
2023/03/21 05:54:20;;;;;;;7.95;5.90;;;;;;;10.59;91.85;100380.16;5256299;33;34581;-86
2023/03/21 05:57:27;;;;;;;9.02;5.97;;;;;;;10.59;91.87;100386.37;5254913;33;34525;-86
2023/03/21 06:00:31;;;;;;;8.50;6.00;;;;;;;10.62;91.79;100393.25;5243956;33;33866;-86
2023/03/21 06:03:35;;;;;;;9.05;5.65;;;;;;;10.50;92.68;100392.81;5255666;33;34900;-86
2023/03/21 06:06:39;;;;;;;9.10;5.95;;;;;;;10.49;92.45;100398.38;5258795;33;33694;-86
2023/03/21 06:09:43;;;;;;;8.45;5.50;;;;;;;10.50;92.26;100392.81;5255290;33;33568;-86
2023/03/21 06:12:45;;;;;;;9.02;5.55;;;;;;;10.56;91.88;100392.13;5257710;33;34220;-85
2023/03/21 06:15:52;;;;;;;8.50;6.05;;;;;;;10.63;91.69;100394.94;5250136;33;33225;-86
2023/03/21 06:18:56;;;;;;;8.38;5.20;;;;;;;10.65;91.44;100395.59;5266933;33;34106;-85
2023/03/21 06:22:00;;;;;;;9.27;5.75;;;;;;;10.72;90.85;100393.03;5243872;33;33825;-85
2023/03/21 06:25:06;;;;;;;7.40;5.30;;;;;;;10.81;90.17;100390.09;5257868;33;34138;-86
2023/03/21 06:28:09;;;;;;;10.70;5.47;;;;;;;10.81;89.66;100392.78;5259688;33;34400;-86
2023/03/21 06:31:14;;;;;;;10.32;5.60;;;;;;;10.89;88.97;100392.72;5248553;33;34659;-86
2023/03/21 06:34:17;;;;;;;7.03;5.25;;;;;;;11.00;88.55;100393.34;5246641;33;33474;-85
2023/03/21 06:37:20;;;;;;;7.97;4.90;;;;;;;11.04;87.63;100392.78;5233585;33;33494;-85
2023/03/21 06:40:23;;;;;;;7.95;5.55;;;;;;;11.06;87.01;100396.13;5234180;33;34782;-85
2023/03/21 06:43:27;;;;;;;9.80;5.60;;;;;;;11.07;87.61;100389.72;5257107;33;33571;-86
2023/03/21 06:46:30;;;;;;;6.47;5.22;;;;;;;11.29;86.06;100388.03;5256943;33;33108;-85
2023/03/21 06:49:33;;;;;;;9.00;5.75;;;;;;;11.34;86.08;100392.87;5245192;33;34141;-85
2023/03/21 06:52:37;;;;;;;7.78;5.70;;;;;;;11.48;84.97;100388.53;5256919;33;33583;-85
2023/03/21 06:55:40;;;;;;;9.63;6.40;;;;;;;11.52;85.51;100390.69;5263959;33;34965;-90
2023/03/21 06:58:45;;;;;;;7.43;5.68;;;;;;;11.75;83.72;100395.97;5251662;33;34363;-90
2023/03/21 07:01:49;;;;;;;8.05;5.78;;;;;;;11.94;82.20;100396.50;5275347;33;33414;-90
2023/03/21 07:04:55;;;;;;;8.60;5.68;;;;;;;12.07;81.26;100398.53;5253566;33;33427;-86
2023/03/21 07:08:00;;;;;;;6.78;5.82;;;;;;;12.20;80.60;100401.44;5259318;33;33238;-86
2023/03/21 07:11:04;;;;;;;8.88;5.95;;;;;;;12.46;78.92;100400.88;5251200;33;34067;-86
2023/03/21 07:14:07;;;;;;;7.25;5.82;;;;;;;12.58;77.96;100401.25;5252583;33;34065;-86
2023/03/21 07:17:10;;;;;;;8.48;6.00;;;;;;;12.55;78.26;100398.91;5260042;33;34615;-85
2023/03/21 07:20:13;;;;;;;13.45;6.10;;;;;;;12.30;79.64;100403.81;5252362;33;33198;-86
2023/03/21 07:23:18;;;;;;;12.82;6.90;;;;;;;12.23;79.64;100401.88;5257690;33;33331;-86
2023/03/21 07:26:21;;;;;;;13.50;5.97;;;;;;;12.08;80.39;100401.06;5274152;33;33868;-85
2023/03/21 07:29:24;;;;;;;8.23;6.22;;;;;;;12.07;79.86;100409.34;5238947;33;34460;-86
2023/03/21 07:32:28;;;;;;;9.80;5.68;;;;;;;12.30;79.39;100410.06;5262355;33;33293;-85
2023/03/21 07:35:31;;;;;;;10.15;5.32;;;;;;;12.77;76.25;100408.72;5264320;33;33482;-85
2023/03/21 07:38:34;;;;;;;7.50;5.65;;;;;;;13.15;74.08;100405.78;5257186;33;33861;-84
2023/03/21 07:41:38;;;;;;;6.97;5.18;;;;;;;13.60;72.53;100409.09;5260103;33;34041;-82
2023/03/21 07:44:44;;;;;;;9.10;5.62;;;;;;;13.80;70.64;100398.41;5259577;33;33826;-85
2023/03/21 07:47:47;;;;;;;7.75;5.40;;;;;;;14.10;68.52;100412.56;5251103;33;33891;-82
2023/03/21 07:50:50;;;;;;;8.05;5.10;;;;;;;14.34;68.38;100402.25;5255924;33;33593;-82
2023/03/21 07:53:53;;;;;;;6.35;5.12;;;;;;;14.56;66.43;100405.69;5235299;33;33611;-82
2023/03/21 07:56:56;;;;;;;11.80;8.10;;;;;;;14.78;64.73;100409.09;5237007;33;33907;-82
2023/03/21 07:59:59;;;;;;;7.22;6.07;;;;;;;14.77;64.46;100405.56;5264819;33;33703;-81
2023/03/21 08:03:02;;;;;;;6.00;5.05;;;;;;;14.69;64.83;100403.03;5269963;33;33574;-82
2023/03/21 08:06:05;;;;;;;7.45;5.30;;;;;;;14.85;64.22;100396.41;5250732;33;33104;-83
2023/03/21 08:09:08;;;;;;;7.62;5.37;;;;;;;14.89;63.68;100393.06;5268338;33;33527;-83
2023/03/21 08:12:11;;;;;;;9.55;5.35;;;;;;;15.03;62.52;100399.34;5254952;33;34598;-83
2023/03/21 08:15:14;;;;;;;6.07;5.30;;;;;;;15.32;62.13;100394.56;5256176;33;33040;-83
2023/03/21 08:18:17;;;;;;;6.22;5.15;;;;;;;15.54;60.96;100397.91;5245476;33;33679;-82
2023/03/21 08:21:20;;;;;;;5.30;4.65;;;;;;;15.55;60.42;100392.25;5255029;33;34016;-83
2023/03/21 08:24:23;;;;;;;6.25;4.95;;;;;;;15.55;59.32;100397.69;5246461;33;33973;-82
2023/03/21 08:27:25;;;;;;;6.62;4.90;;;;;;;15.66;58.67;100393.50;5266323;33;33453;-82
2023/03/21 08:30:28;;;;;;;10.18;4.80;;;;;;;15.70;58.30;100391.22;5252811;33;33806;-83
2023/03/21 08:33:31;;;;;;;5.80;4.62;;;;;;;15.91;57.76;100385.53;5255917;33;34170;-83
2023/03/21 08:36:35;;;;;;;5.40;4.60;;;;;;;15.93;56.90;100388.88;5257825;33;33512;-83
2023/03/21 08:39:38;;;;;;;6.00;4.47;;;;;;;16.07;56.75;100395.97;5259720;33;33399;-83
2023/03/21 08:42:43;;;;;;;4.65;4.12;;;;;;;16.08;56.15;100389.47;5247477;33;33484;-83
2023/03/21 08:45:45;;;;;;;6.57;4.70;;;;;;;16.18;55.88;100386.31;5254790;33;32985;-84
2023/03/21 08:48:49;;;;;;;5.07;4.28;;;;;;;16.38;55.46;100390.81;5258441;33;33587;-84
2023/03/21 08:51:55;;;;;;;5.40;4.80;;;;;;;16.59;55.03;100387.00;5262778;33;33439;-83
2023/03/21 08:54:58;;;;;;;7.07;4.72;;;;;;;16.71;54.02;100396.13;5267607;33;34728;-82
2023/03/21 08:58:01;;;;;;;6.20;4.37;;;;;;;16.55;53.97;100398.28;5254994;33;35166;-83
2023/03/21 09:01:05;;;;;;;4.32;3.83;;;;;;;16.56;54.10;100390.97;5256290;33;34233;-83
2023/03/21 09:04:09;;;;;;;5.07;4.43;;;;;;;16.87;52.59;100389.34;5257518;33;34223;-83
2023/03/21 09:07:13;;;;;;;4.37;3.87;;;;;;;17.00;51.41;100386.56;5250566;33;34901;-88
2023/03/21 09:10:18;;;;;;;5.25;4.03;;;;;;;17.22;50.80;100389.72;5247464;33;33935;-87
2023/03/21 09:13:24;;;;;;;5.28;4.30;;;;;;;17.47;50.29;100387.03;5265765;33;33941;-83
2023/03/21 09:16:27;;;;;;;4.35;3.55;;;;;;;17.48;49.17;100382.41;5241503;33;34956;-82
2023/03/21 09:19:30;;;;;;;3.92;3.53;;;;;;;17.32;49.76;100381.09;5260508;33;34189;-84
2023/03/21 09:22:33;;;;;;;5.60;3.40;;;;;;;17.03;49.82;100388.84;5244688;33;33340;-84
2023/03/21 09:25:37;;;;;;;4.60;3.25;;;;;;;17.06;49.72;100384.84;5254379;33;33676;-83
2023/03/21 09:28:41;;;;;;;4.28;3.80;;;;;;;17.13;49.42;100385.63;5255003;33;33763;-84
2023/03/21 09:31:45;;;;;;;3.50;3.20;;;;;;;16.94;50.54;100384.72;5275099;33;33349;-83
2023/03/21 09:34:49;;;;;;;3.92;3.53;;;;;;;17.07;48.95;100378.34;5259923;33;34812;-83
2023/03/21 09:37:53;;;;;;;5.37;3.65;;;;;;;16.88;49.58;100383.72;5265392;33;34434;-83
2023/03/21 09:41:08;;;;;;;4.37;3.90;;;;;;;16.74;50.84;100382.09;5279287;33;34791;-82
2023/03/21 09:44:26;;;;;;;7.20;4.12;;;;;;;16.76;50.15;100386.28;5268408;33;33798;-83
2023/03/21 09:47:36;;;;;;;5.47;3.78;;;;;;;16.86;51.18;100374.09;5273348;33;33153;-84
2023/03/21 09:50:43;;;;;;;5.32;3.50;;;;;;;17.15;49.69;100383.50;5275105;33;33613;-83
2023/03/21 09:53:49;;;;;;;7.85;3.83;;;;;;;17.55;48.71;100375.84;5243606;33;33924;-83
2023/03/21 09:56:56;;;;;;;5.25;4.12;;;;;;;17.69;47.67;100377.38;5270280;33;33749;-83
2023/03/21 10:00:08;;;;;;;5.57;4.43;;;;;;;17.35;49.16;100376.03;5274777;33;34487;-83
2023/03/21 10:03:25;;;;;;;4.28;3.80;;;;;;;17.46;49.18;100374.44;5269800;33;33722;-83
2023/03/21 10:06:29;;;;;;;5.93;3.90;;;;;;;17.34;48.44;100374.34;5261044;33;34153;-83
2023/03/21 10:09:33;;;;;;;5.68;3.92;;;;;;;17.11;49.29;100379.56;5261549;33;33498;-83
2023/03/21 10:12:36;;;;;;;3.90;3.50;;;;;;;16.88;49.50;100383.72;5270110;33;34415;-83
2023/03/21 10:15:39;;;;;;;6.03;3.90;;;;;;;16.99;49.20;100377.56;5246620;33;33011;-83
2023/03/21 10:18:45;;;;;;;4.22;3.20;;;;;;;16.96;49.88;100382.59;5258009;33;33944;-83
2023/03/21 10:21:50;;;;;;;3.62;3.00;;;;;;;16.94;48.14;100371.94;5260104;33;33678;-83
2023/03/21 10:25:15;;;;;;;4.05;3.40;;;;;;;17.16;47.40;100374.28;5266497;33;33053;-83
2023/03/21 10:28:23;;;;;;;5.60;2.97;;;;;;;17.09;47.23;100370.81;5262964;33;34246;-84
2023/03/21 10:31:28;;;;;;;4.83;3.00;;;;;;;17.29;46.45;100367.94;5259839;33;35004;-83
2023/03/21 10:34:55;;;;;;;2.90;2.70;;;;;;;17.37;47.26;100367.62;5260096;33;33120;-82
2023/03/21 10:38:05;;;;;;;5.80;3.20;;;;;;;17.73;45.52;100374.22;5260152;33;33137;-84
2023/03/21 10:41:10;;;;;;;3.62;3.12;;;;;;;17.61;45.95;100365.97;5271309;33;33958;-85
2023/03/21 10:44:16;;;;;;;3.65;3.03;;;;;;;17.88;45.26;100359.19;5252220;33;34281;-84
2023/03/21 10:47:25;;;;;;;5.55;2.80;;;;;;;18.18;44.63;100360.34;5275540;33;33712;-83
2023/03/21 10:50:29;;;;;;;3.90;2.78;;;;;;;18.40;44.15;100358.81;5280251;33;34421;-83
2023/03/21 10:53:37;;;;;;;3.33;3.00;;;;;;;18.82;42.63;100347.12;5258542;33;33509;-83
2023/03/21 10:56:56;;;;;;;3.60;3.30;;;;;;;18.96;43.42;100354.06;5277896;33;34459;-83
2023/03/21 11:00:01;;;;;;;4.00;3.55;;;;;;;18.59;43.13;100346.78;5266651;33;33382;-83
2023/03/21 11:03:07;;;;;;;3.90;3.37;;;;;;;18.50;43.60;100345.44;5261281;33;34443;-83
2023/03/21 11:06:26;;;;;;;3.10;2.80;;;;;;;18.72;43.13;100337.59;5261886;33;33752;-82
2023/03/21 11:09:43;;;;;;;;;;;;;;;19.17;41.68;100334.38;5261727;33;31291;-82
2023/03/21 11:12:47;;;;;;;3.28;2.97;;;;;;;19.38;41.62;100332.97;5257124;33;33020;-86
2023/03/21 11:15:54;;;;;;;3.58;3.20;;;;;;;19.40;40.74;100330.00;5234233;33;34324;-86
2023/03/21 11:19:01;;;;;;;3.60;3.00;;;;;;;19.68;40.25;100318.37;5265452;33;33508;-83
2023/03/21 11:22:07;;;;;;;4.12;3.20;;;;;;;19.75;39.70;100308.16;5262857;33;33544;-83
2023/03/21 11:25:36;;;;;;;4.35;3.65;;;;;;;20.09;39.68;100311.03;5272323;33;33612;-83
2023/03/21 11:28:40;;;;;;;4.82;3.42;;;;;;;20.00;39.75;100304.31;5268258;33;34373;-83
2023/03/21 11:31:43;;;;;;;3.80;3.15;;;;;;;20.64;38.77;100301.47;5267842;33;33611;-82
2023/03/21 11:34:52;;;;;;;4.18;3.10;;;;;;;20.41;38.49;100303.19;5266540;33;34571;-82
2023/03/21 11:37:55;;;;;;;4.05;3.65;;;;;;;20.86;37.49;100288.72;5263176;33;36141;-83
2023/03/21 11:41:01;;;;;;;6.22;3.37;;;;;;;21.49;37.21;100290.28;5259863;33;33875;-83
2023/03/21 11:44:04;;;;;;;4.03;3.37;;;;;;;22.23;34.45;100291.81;5272194;33;34316;-83
2023/03/21 11:47:09;;;;;;;3.90;2.75;;;;;;;22.22;36.07;100284.66;5251485;33;33558;-83
2023/03/21 11:50:12;;;;;;;3.62;3.10;;;;;;;22.85;33.18;100285.84;5260769;33;33420;-82
2023/03/21 11:53:38;;;;;;;3.10;2.80;;;;;;;22.82;32.46;100286.34;5271424;33;33026;-83
2023/03/21 11:56:46;;;;;;;4.07;3.08;;;;;;;22.25;33.47;100284.13;5264264;33;33519;-83
2023/03/21 12:00:13;;;;;;;3.40;2.90;;;;;;;20.85;35.80;100284.31;5258885;33;33815;-82
2023/03/21 12:03:31;;;;;;;3.95;2.92;;;;;;;19.44;39.23;100262.94;5270846;33;34323;-82
2023/03/21 12:07:33;;;;;;;4.00;2.90;;;;;;;21.52;34.76;100278.00;5271143;33;34470;-83
2023/03/21 12:10:47;;;;;;;5.90;3.10;;;;;;;20.84;35.23;100269.00;5249540;33;33749;-82
2023/03/21 12:14:07;;;;;;;5.05;3.55;;;;;;;20.47;36.62;100276.78;5270308;33;33440;-83
2023/03/21 12:17:31;;;;;;;4.28;3.17;;;;;;;20.46;37.52;100272.41;5269511;33;33389;-83
2023/03/21 12:20:40;;;;;;;3.30;2.87;;;;;;;24.32;31.81;100264.97;5267052;33;33699;-83
2023/03/21 12:24:12;;;;;;;3.37;2.58;;;;;;;24.81;29.14;100256.25;5272188;33;33549;-83
2023/03/21 12:27:36;;;;;;;2.85;2.50;;;;;;;25.89;27.51;100262.41;5270038;33;33212;-82
2023/03/21 12:30:53;;;;;;;4.70;2.80;;;;;;;24.49;29.38;100248.25;5263730;33;33561;-87
2023/03/21 12:34:05;;;;;;;3.58;2.80;;;;;;;22.66;32.37;100261.78;5262984;33;33448;-83
2023/03/21 12:37:25;;;;;;;3.25;2.62;;;;;;;24.64;30.39;100250.19;5256985;33;33511;-82
2023/03/21 12:40:53;;;;;;;3.58;3.12;;;;;;;26.55;27.77;100246.59;5267305;33;34598;-82
2023/03/21 12:44:19;;;;;;;3.03;2.62;;;;;;;28.69;24.81;100226.69;5262820;33;34598;-82
2023/03/21 12:47:25;;;;;;;2.37;2.08;;;;;;;30.37;22.50;100227.31;5239866;33;33416;-82
2023/03/21 12:50:36;;;;;;;5.12;2.30;;;;;;;31.49;21.20;100216.06;5249923;33;34168;-82
2023/03/21 12:53:58;;;;;;;2.00;1.90;;;;;;;30.86;21.17;100217.19;5248342;33;33490;-83
2023/03/21 12:57:10;;;;;;;3.17;2.25;;;;;;;28.59;22.96;100215.78;5246110;33;33450;-82
2023/03/21 13:00:27;;;;;;;2.45;2.10;;;;;;;24.74;27.70;100217.13;5254139;33;34114;-82
2023/03/21 13:03:44;;;;;;;4.47;2.62;;;;;;;22.88;30.94;100215.84;5253592;33;33666;-87
2023/03/21 13:06:51;;;;;;;2.60;2.40;;;;;;;21.52;33.62;100223.19;5246009;33;33890;-83
2023/03/21 13:09:55;;;;;;;2.42;2.20;;;;;;;20.29;35.64;100223.97;5236354;34;34197;-82
2023/03/21 13:13:26;;;;;;;2.60;2.17;;;;;;;19.42;35.96;100207.72;5246357;33;34194;-83
2023/03/21 13:16:34;;;;;;;3.37;2.05;;;;;;;18.88;37.07;100215.25;5255049;33;33379;-83
2023/03/21 13:19:53;;;;;;;2.00;1.90;;;;;;;18.65;37.00;100210.56;5253689;33;33358;-83
2023/03/21 13:22:56;;;;;;;3.62;1.77;;;;;;;18.89;36.25;100206.00;5254018;33;34062;-83
2023/03/21 13:26:02;;;;;;;2.28;1.98;;;;;;;18.72;35.81;100198.50;5253788;33;33571;-83
2023/03/21 13:29:24;;;;;;;2.00;1.80;;;;;;;19.29;35.12;100202.53;5241360;33;33765;-83
2023/03/21 13:32:31;;;;;;;4.20;1.85;;;;;;;25.09;27.65;100187.91;5255386;33;33549;-82
2023/03/21 13:35:41;;;;;;;1.75;1.58;;;;;;;26.14;25.74;100199.91;5260140;33;34866;-82
2023/03/21 13:38:49;;;;;;;1.62;1.23;;;;;;;24.26;27.29;100197.28;5245759;33;32980;-83
2023/03/21 13:41:53;;;;;;;2.12;1.67;;;;;;;22.83;27.87;100194.69;5238592;34;33484;-82
2023/03/21 13:44:59;;;;;;;5.22;2.00;;;;;;;23.13;28.58;100197.91;5232763;33;34460;-83
2023/03/21 13:48:05;;;;;;;3.30;1.83;;;;;;;23.20;28.66;100185.63;5281417;33;33538;-82
2023/03/21 13:51:08;;;;;;;2.45;1.98;;;;;;;23.23;28.58;100184.25;5274439;33;33549;-82
2023/03/21 13:54:15;;;;;;;2.53;1.95;;;;;;;24.73;27.27;100181.62;5262646;33;34266;-87
2023/03/21 13:57:37;;;;;;;2.97;1.98;;;;;;;23.22;28.85;100175.16;5273769;33;33413;-87
2023/03/21 14:00:40;;;;;;;2.60;2.10;;;;;;;21.32;31.81;100182.63;5276762;33;34378;-83
2023/03/21 14:03:45;;;;;;;2.37;2.17;;;;;;;20.66;33.47;100179.78;5277625;33;34768;-83
2023/03/21 14:06:56;;;;;;;3.58;1.92;;;;;;;22.81;30.65;100174.06;5285027;33;34217;-83
2023/03/21 14:10:04;;;;;;;2.33;1.90;;;;;;;25.66;27.05;100166.53;5286508;33;33654;-82
2023/03/21 14:13:15;;;;;;;2.15;1.87;;;;;;;27.26;24.62;100162.22;5290017;33;33460;-83
2023/03/21 14:16:20;;;;;;;1.87;1.50;;;;;;;28.62;22.75;100168.09;5264022;33;34056;-83
2023/03/21 14:19:31;;;;;;;2.90;1.27;;;;;;;27.61;22.47;100160.97;5276581;33;33099;-83
2023/03/21 14:22:34;;;;;;;1.30;1.20;;;;;;;28.94;21.34;100156.97;5281378;33;34389;-83
2023/03/21 14:25:38;;;;;;;2.30;1.17;;;;;;;28.32;22.10;100150.84;5270170;33;33391;-83
2023/03/21 14:28:51;;;;;;;1.75;1.37;;;;;;;28.10;22.32;100145.09;5277738;33;32949;-83
2023/03/21 14:31:56;;;;;;;1.33;1.23;;;;;;;26.11;23.77;100137.84;5288998;33;33710;-83
2023/03/21 14:35:00;;;;;;;4.85;2.05;;;;;;;24.18;26.58;100140.84;5279031;33;33208;-85
2023/03/21 14:38:06;;;;;;;5.35;2.00;;;;;;;22.78;28.51;100136.16;5286488;33;33087;-88
2023/03/21 14:41:26;;;;;;;2.53;2.22;;;;;;;20.90;31.85;100141.28;5287410;33;33561;-86
2023/03/21 14:44:47;;;;;;;3.08;2.28;;;;;;;19.93;34.42;100149.53;5291673;33;34586;-85
2023/03/21 14:48:05;;;;;;;3.97;2.58;;;;;;;19.02;36.70;100141.13;5280271;33;35090;-86
2023/03/21 14:51:11;;;;;;;4.20;2.50;;;;;;;18.52;37.70;100147.03;5276336;33;34131;-86
2023/03/21 14:54:18;;;;;;;3.95;2.28;;;;;;;18.16;38.07;100137.12;5277299;33;33525;-87
2023/03/21 14:57:24;;;;;;;3.53;2.30;;;;;;;17.94;38.68;100142.28;5268258;33;34582;-85
2023/03/21 15:00:29;;;;;;;4.12;2.30;;;;;;;17.69;39.52;100136.94;5272917;33;159674;-84
2023/03/21 15:03:33;;;;;;;3.80;2.70;;;;;;;17.62;39.38;100142.47;5275697;33;33488;-84
2023/03/21 15:06:52;;;;;;;2.60;2.20;;;;;;;17.33;39.45;100135.13;5261821;33;33493;-84
2023/03/21 15:10:00;;;;;;;2.65;2.10;;;;;;;17.32;39.60;100142.44;5274215;33;33291;-82
2023/03/21 15:13:16;;;;;;;2.28;2.03;;;;;;;17.14;38.90;100140.56;5273253;33;33458;-83
2023/03/21 15:16:20;;;;;;;3.78;2.42;;;;;;;17.07;39.40;100141.69;5272827;33;33542;-83
2023/03/21 15:19:42;;;;;;;3.28;2.55;;;;;;;16.92;40.94;100142.06;5273342;33;34054;-83
2023/03/21 15:22:53;;;;;;;4.95;2.50;;;;;;;16.82;41.62;100131.72;5271558;33;33550;-84
2023/03/21 15:25:57;;;;;;;4.35;2.87;;;;;;;16.70;42.51;100131.59;5269207;33;33507;-85
2023/03/21 15:29:01;;;;;;;4.03;2.75;;;;;;;16.63;43.01;100132.69;5250862;33;34309;-85
2023/03/21 15:32:11;;;;;;;3.58;2.75;;;;;;;16.44;44.44;100129.94;5247384;33;34896;-84
2023/03/21 15:35:18;;;;;;;3.70;2.70;;;;;;;16.24;45.17;100132.00;5255757;33;32971;-84
2023/03/21 15:38:43;;;;;;;4.18;2.97;;;;;;;16.20;45.84;100125.31;5256749;33;33619;-84
2023/03/21 15:42:02;;;;;;;4.80;3.00;;;;;;;16.14;46.41;100129.75;5257473;33;33878;-86
2023/03/21 15:45:26;;;;;;;3.13;2.83;;;;;;;16.02;46.69;100129.63;5265305;33;34351;-83
2023/03/21 15:48:33;;;;;;;3.58;2.87;;;;;;;15.95;46.97;100131.56;5275482;33;33773;-83
2023/03/21 15:51:36;;;;;;;3.00;2.80;;;;;;;15.82;47.77;100121.66;5272201;33;34120;-83
2023/03/21 15:54:54;;;;;;;5.12;3.28;;;;;;;15.81;46.75;100133.53;5266971;33;33922;-83
2023/03/21 15:58:12;;;;;;;4.78;3.05;;;;;;;15.65;46.89;100131.31;5273837;33;33870;-82
2023/03/21 16:01:20;;;;;;;3.47;2.83;;;;;;;15.62;46.84;100123.59;5288259;33;33781;-83
2023/03/21 16:04:25;;;;;;;3.37;2.83;;;;;;;15.50;47.62;100128.03;5290751;33;34904;-83
2023/03/21 16:07:32;;;;;;;3.15;2.70;;;;;;;15.47;47.50;100129.28;5287830;33;34443;-83
2023/03/21 16:10:36;;;;;;;3.03;2.65;;;;;;;15.45;47.45;100127.88;5258291;33;33559;-83
2023/03/21 16:13:40;;;;;;;3.72;3.33;;;;;;;15.35;47.79;100131.84;5272072;33;33449;-83
2023/03/21 16:16:44;;;;;;;3.67;2.92;;;;;;;15.31;47.44;100129.81;5259252;33;33555;-83
2023/03/21 16:19:48;;;;;;;5.37;3.20;;;;;;;15.25;47.93;100134.19;5279339;33;33535;-83
2023/03/21 16:22:51;;;;;;;3.22;2.90;;;;;;;15.18;47.52;100136.09;5260263;33;35268;-83
2023/03/21 16:25:57;;;;;;;4.57;3.40;;;;;;;15.12;47.94;100145.94;5256851;33;32436;-85
2023/03/21 16:29:00;;;;;;;5.00;3.35;;;;;;;15.05;48.30;100145.09;5247500;33;33527;-83
2023/03/21 16:32:05;;;;;;;3.42;3.12;;;;;;;14.95;48.57;100145.56;5247481;33;33240;-83
2023/03/21 16:35:08;;;;;;;4.50;3.80;;;;;;;14.91;49.24;100148.91;5259013;33;34156;-83
2023/03/21 16:38:12;;;;;;;6.60;3.53;;;;;;;14.88;49.95;100154.75;5271681;33;33689;-83
2023/03/21 16:41:16;;;;;;;6.18;3.87;;;;;;;14.68;49.88;100146.63;5271642;33;33239;-83
2023/03/21 16:44:19;;;;;;;4.37;3.92;;;;;;;14.62;50.51;100153.72;5271890;33;33992;-82
2023/03/21 16:47:23;;;;;;;5.53;3.80;;;;;;;14.61;50.60;100156.66;5261244;33;33545;-83
2023/03/21 16:50:30;;;;;;;5.82;3.90;;;;;;;14.50;51.05;100155.37;5257938;33;33488;-83
2023/03/21 16:53:33;;;;;;;5.95;3.60;;;;;;;14.40;51.84;100160.38;5278572;33;35111;-87
2023/03/21 16:56:39;;;;;;;5.37;4.03;;;;;;;14.28;52.07;100168.31;5258824;33;33458;-87
2023/03/21 17:29:15;;;;;;;6.20;4.35;;;;;;;13.52;54.72;100190.19;5712496;28;20155;-84
2023/03/21 17:32:18;;;;;;;5.65;4.28;;;;;;;13.31;55.61;100191.12;5260321;33;33732;-84
2023/03/21 17:35:22;;;;;;;6.85;4.03;;;;;;;13.44;55.03;100184.94;5271915;33;34214;-84
2023/03/21 17:38:26;;;;;;;8.23;4.93;;;;;;;13.38;55.21;100189.28;5270799;33;33273;-84
2023/03/21 17:41:29;;;;;;;5.40;4.25;;;;;;;13.36;55.03;100191.34;5257875;33;33448;-84
2023/03/21 17:44:32;;;;;;;6.20;4.43;;;;;;;13.27;55.35;100189.84;5273189;33;34889;-84
2023/03/21 17:47:36;;;;;;;8.80;5.55;;;;;;;13.26;55.42;100193.59;5263787;33;33868;-84
